sensor_id;sensor_type;location;lat;lon;timestamp;pressure;altitude;pressure_sealevel;temperature
78859;BMP280;68210;52.032;4.634;2023-07-31T00:00:16;100773.50;;;19.10
78859;BMP280;68210;52.032;4.634;2023-07-31T00:02:17;100782.16;;;19.09
78859;BMP280;68210;52.032;4.634;2023-07-31T00:04:17;100779.47;;;19.02
78859;BMP280;68210;52.032;4.634;2023-07-31T00:06:17;100774.31;;;19.07
78859;BMP280;68210;52.032;4.634;2023-07-31T00:08:18;100776.72;;;19.05
78859;BMP280;68210;52.032;4.634;2023-07-31T00:10:18;100784.56;;;19.03
78859;BMP280;68210;52.032;4.634;2023-07-31T00:12:19;100779.84;;;19.04
78859;BMP280;68210;52.032;4.634;2023-07-31T00:14:20;100791.63;;;19.04
78859;BMP280;68210;52.032;4.634;2023-07-31T00:16:20;100783.88;;;18.92
78859;BMP280;68210;52.032;4.634;2023-07-31T00:18:21;100786.25;;;18.90
78859;BMP280;68210;52.032;4.634;2023-07-31T00:20:21;100787.00;;;18.94
78859;BMP280;68210;52.032;4.634;2023-07-31T00:22:22;100788.47;;;19.02
78859;BMP280;68210;52.032;4.634;2023-07-31T00:24:22;100774.69;;;19.09
78859;BMP280;68210;52.032;4.634;2023-07-31T00:26:22;100773.63;;;19.00
78859;BMP280;68210;52.032;4.634;2023-07-31T00:28:23;100763.53;;;18.80
78859;BMP280;68210;52.032;4.634;2023-07-31T00:30:23;100777.50;;;19.02
78859;BMP280;68210;52.032;4.634;2023-07-31T00:32:25;100768.91;;;18.97
78859;BMP280;68210;52.032;4.634;2023-07-31T00:34:26;100762.59;;;19.03
78859;BMP280;68210;52.032;4.634;2023-07-31T00:36:26;100771.94;;;19.09
78859;BMP280;68210;52.032;4.634;2023-07-31T00:38:27;100778.78;;;18.94
78859;BMP280;68210;52.032;4.634;2023-07-31T00:40:27;100786.25;;;18.90
78859;BMP280;68210;52.032;4.634;2023-07-31T00:42:28;100787.69;;;19.05
78859;BMP280;68210;52.032;4.634;2023-07-31T00:44:28;100769.19;;;19.09
78859;BMP280;68210;52.032;4.634;2023-07-31T00:46:28;100778.97;;;19.14
78859;BMP280;68210;52.032;4.634;2023-07-31T00:48:29;100783.56;;;19.27
78859;BMP280;68210;52.032;4.634;2023-07-31T00:50:30;100776.91;;;19.21
78859;BMP280;68210;52.032;4.634;2023-07-31T00:52:30;100771.94;;;19.09
78859;BMP280;68210;52.032;4.634;2023-07-31T00:54:31;100775.00;;;19.18
78859;BMP280;68210;52.032;4.634;2023-07-31T00:56:32;100778.94;;;19.17
78859;BMP280;68210;52.032;4.634;2023-07-31T00:58:32;100764.91;;;19.08
78859;BMP280;68210;52.032;4.634;2023-07-31T01:00:33;100774.25;;;19.14
78859;BMP280;68210;52.032;4.634;2023-07-31T01:02:33;100766.84;;;19.11
78859;BMP280;68210;52.032;4.634;2023-07-31T01:04:34;100771.06;;;19.19
78859;BMP280;68210;52.032;4.634;2023-07-31T01:07:01;100767.47;;;19.25
78859;BMP280;68210;52.032;4.634;2023-07-31T01:09:11;100767.50;;;19.22
78859;BMP280;68210;52.032;4.634;2023-07-31T01:11:17;100763.69;;;19.09
78859;BMP280;68210;52.032;4.634;2023-07-31T01:13:20;100771.16;;;19.09
78859;BMP280;68210;52.032;4.634;2023-07-31T01:15:21;100756.94;;;19.17
78859;BMP280;68210;52.032;4.634;2023-07-31T01:17:21;100767.75;;;18.98
78859;BMP280;68210;52.032;4.634;2023-07-31T01:19:23;100767.78;;;18.87
78859;BMP280;68210;52.032;4.634;2023-07-31T01:25:48;100771.34;;;18.85
78859;BMP280;68210;52.032;4.634;2023-07-31T01:28:08;100773.28;;;18.94
78859;BMP280;68210;52.032;4.634;2023-07-31T01:30:16;100760.34;;;18.88
78859;BMP280;68210;52.032;4.634;2023-07-31T01:32:18;100746.97;;;18.90
78859;BMP280;68210;52.032;4.634;2023-07-31T01:34:20;100768.19;;;18.86
78859;BMP280;68210;52.032;4.634;2023-07-31T01:36:21;100749.28;;;18.98
78859;BMP280;68210;52.032;4.634;2023-07-31T01:38:22;100747.72;;;18.97
78859;BMP280;68210;52.032;4.634;2023-07-31T01:40:22;100761.91;;;18.92
78859;BMP280;68210;52.032;4.634;2023-07-31T01:42:23;100754.06;;;18.91
78859;BMP280;68210;52.032;4.634;2023-07-31T01:44:23;100753.19;;;19.01
78859;BMP280;68210;52.032;4.634;2023-07-31T01:46:24;100748.47;;;19.01
78859;BMP280;68210;52.032;4.634;2023-07-31T01:48:24;100742.09;;;19.11
78859;BMP280;68210;52.032;4.634;2023-07-31T01:50:25;100731.94;;;19.05
78859;BMP280;68210;52.032;4.634;2023-07-31T01:52:25;100730.44;;;19.00
78859;BMP280;68210;52.032;4.634;2023-07-31T01:54:25;100742.25;;;18.97
78859;BMP280;68210;52.032;4.634;2023-07-31T01:56:26;100715.44;;;19.08
78859;BMP280;68210;52.032;4.634;2023-07-31T01:58:26;100728.41;;;19.04
78859;BMP280;68210;52.032;4.634;2023-07-31T02:00:27;100709.34;;;18.84
78859;BMP280;68210;52.032;4.634;2023-07-31T02:02:27;100712.41;;;18.96
78859;BMP280;68210;52.032;4.634;2023-07-31T02:04:27;100700.25;;;18.93
78859;BMP280;68210;52.032;4.634;2023-07-31T02:06:28;100698.28;;;18.97
78859;BMP280;68210;52.032;4.634;2023-07-31T02:08:28;100684.19;;;18.88
78859;BMP280;68210;52.032;4.634;2023-07-31T02:10:28;100696.75;;;18.86
78859;BMP280;68210;52.032;4.634;2023-07-31T02:12:29;100696.69;;;18.96
78859;BMP280;68210;52.032;4.634;2023-07-31T02:14:32;100690.88;;;18.87
78859;BMP280;68210;52.032;4.634;2023-07-31T02:16:32;100683.38;;;18.95
78859;BMP280;68210;52.032;4.634;2023-07-31T02:18:32;100684.16;;;18.95
78859;BMP280;68210;52.032;4.634;2023-07-31T02:20:34;100686.94;;;18.92
78859;BMP280;68210;52.032;4.634;2023-07-31T02:22:35;100678.69;;;18.92
78859;BMP280;68210;52.032;4.634;2023-07-31T02:24:35;100682.63;;;18.87
78859;BMP280;68210;52.032;4.634;2023-07-31T02:26:36;100687.72;;;18.92
78859;BMP280;68210;52.032;4.634;2023-07-31T02:28:36;100683.41;;;18.91
78859;BMP280;68210;52.032;4.634;2023-07-31T02:30:37;100688.50;;;18.89
78859;BMP280;68210;52.032;4.634;2023-07-31T02:32:37;100689.66;;;18.95
78859;BMP280;68210;52.032;4.634;2023-07-31T02:34:38;100674.72;;;18.96
78859;BMP280;68210;52.032;4.634;2023-07-31T02:36:38;100676.25;;;19.01
78859;BMP280;68210;52.032;4.634;2023-07-31T02:38:38;100684.88;;;19.03
78859;BMP280;68210;52.032;4.634;2023-07-31T02:40:40;100685.66;;;19.03
78859;BMP280;68210;52.032;4.634;2023-07-31T02:42:43;100688.78;;;19.05
78859;BMP280;68210;52.032;4.634;2023-07-31T02:44:43;100681.69;;;19.04
78859;BMP280;68210;52.032;4.634;2023-07-31T02:46:44;100680.53;;;19.05
78859;BMP280;68210;52.032;4.634;2023-07-31T02:48:44;100685.16;;;19.12
78859;BMP280;68210;52.032;4.634;2023-07-31T02:50:45;100676.28;;;18.97
78859;BMP280;68210;52.032;4.634;2023-07-31T02:52:46;100669.25;;;18.93
78859;BMP280;68210;52.032;4.634;2023-07-31T02:54:46;100664.09;;;18.98
78859;BMP280;68210;52.032;4.634;2023-07-31T02:56:47;100670.41;;;18.95
78859;BMP280;68210;52.032;4.634;2023-07-31T02:58:48;100657.41;;;18.99
78859;BMP280;68210;52.032;4.634;2023-07-31T03:00:48;100661.03;;;18.89
78859;BMP280;68210;52.032;4.634;2023-07-31T03:02:49;100649.66;;;18.87
78859;BMP280;68210;52.032;4.634;2023-07-31T03:04:50;100652.03;;;18.86
78859;BMP280;68210;52.032;4.634;2023-07-31T03:06:50;100651.19;;;18.95
78859;BMP280;68210;52.032;4.634;2023-07-31T03:08:50;100662.19;;;18.88
78859;BMP280;68210;52.032;4.634;2023-07-31T03:10:51;100655.91;;;18.91
78859;BMP280;68210;52.032;4.634;2023-07-31T03:12:51;100651.25;;;18.85
78859;BMP280;68210;52.032;4.634;2023-07-31T03:14:51;100650.81;;;18.93
78859;BMP280;68210;52.032;4.634;2023-07-31T03:16:52;100644.16;;;18.94
78859;BMP280;68210;52.032;4.634;2023-07-31T03:18:52;100650.00;;;18.96
78859;BMP280;68210;52.032;4.634;2023-07-31T03:20:53;100648.81;;;18.97
78859;BMP280;68210;52.032;4.634;2023-07-31T03:22:53;100644.00;;;19.05
78859;BMP280;68210;52.032;4.634;2023-07-31T03:24:53;100638.19;;;18.99
78859;BMP280;68210;52.032;4.634;2023-07-31T03:26:54;100622.19;;;18.91
78859;BMP280;68210;52.032;4.634;2023-07-31T03:28:54;100634.31;;;18.93
78859;BMP280;68210;52.032;4.634;2023-07-31T03:30:55;100637.06;;;18.93
78859;BMP280;68210;52.032;4.634;2023-07-31T03:32:55;100628.50;;;18.85
78859;BMP280;68210;52.032;4.634;2023-07-31T03:34:55;100641.03;;;18.92
78859;BMP280;68210;52.032;4.634;2023-07-31T03:36:56;100634.66;;;18.99
78859;BMP280;68210;52.032;4.634;2023-07-31T03:38:56;100642.91;;;18.99
78859;BMP280;68210;52.032;4.634;2023-07-31T03:40:56;100636.75;;;18.85
78859;BMP280;68210;52.032;4.634;2023-07-31T03:42:58;100635.91;;;18.94
78859;BMP280;68210;52.032;4.634;2023-07-31T03:44:59;100631.56;;;18.93
78859;BMP280;68210;52.032;4.634;2023-07-31T03:46:59;100630.75;;;18.96
78859;BMP280;68210;52.032;4.634;2023-07-31T03:49:00;100623.34;;;18.90
78859;BMP280;68210;52.032;4.634;2023-07-31T03:51:00;100628.50;;;18.85
78859;BMP280;68210;52.032;4.634;2023-07-31T03:53:00;100617.47;;;18.88
78859;BMP280;68210;52.032;4.634;2023-07-31T03:55:01;100615.75;;;19.04
78859;BMP280;68210;52.032;4.634;2023-07-31T03:57:01;100622.00;;;19.08
78859;BMP280;68210;52.032;4.634;2023-07-31T03:59:02;100618.16;;;18.99
78859;BMP280;68210;52.032;4.634;2023-07-31T04:01:03;100611.84;;;19.05
78859;BMP280;68210;52.032;4.634;2023-07-31T04:03:03;100616.63;;;18.98
78859;BMP280;68210;52.032;4.634;2023-07-31T04:05:03;100603.34;;;18.93
78859;BMP280;68210;52.032;4.634;2023-07-31T04:07:04;100612.53;;;18.73
78859;BMP280;68210;52.032;4.634;2023-07-31T04:09:04;100618.41;;;18.75
78859;BMP280;68210;52.032;4.634;2023-07-31T04:11:05;100611.94;;;18.55
78859;BMP280;68210;52.032;4.634;2023-07-31T04:13:05;100601.03;;;18.48
78859;BMP280;68210;52.032;4.634;2023-07-31T04:15:06;100604.63;;;18.42
78859;BMP280;68210;52.032;4.634;2023-07-31T04:17:06;100597.19;;;18.39
78859;BMP280;68210;52.032;4.634;2023-07-31T04:19:06;100607.06;;;18.33
78859;BMP280;68210;52.032;4.634;2023-07-31T04:21:07;100603.97;;;18.24
78859;BMP280;68210;52.032;4.634;2023-07-31T04:23:07;100600.06;;;18.25
78859;BMP280;68210;52.032;4.634;2023-07-31T04:25:08;100596.59;;;18.18
78859;BMP280;68210;52.032;4.634;2023-07-31T04:27:08;100596.97;;;18.20
78859;BMP280;68210;52.032;4.634;2023-07-31T04:29:09;100589.16;;;18.18
78859;BMP280;68210;52.032;4.634;2023-07-31T04:31:09;100589.19;;;18.11
78859;BMP280;68210;52.032;4.634;2023-07-31T04:33:09;100593.16;;;18.07
78859;BMP280;68210;52.032;4.634;2023-07-31T04:35:10;100583.75;;;18.08
78859;BMP280;68210;52.032;4.634;2023-07-31T04:37:10;100594.25;;;18.20
78859;BMP280;68210;52.032;4.634;2023-07-31T04:39:11;100584.38;;;18.26
78859;BMP280;68210;52.032;4.634;2023-07-31T04:41:11;100571.13;;;18.17
78859;BMP280;68210;52.032;4.634;2023-07-31T04:43:11;100575.09;;;18.13
78859;BMP280;68210;52.032;4.634;2023-07-31T04:45:12;100575.94;;;18.03
78859;BMP280;68210;52.032;4.634;2023-07-31T04:47:12;100574.00;;;17.96
78859;BMP280;68210;52.032;4.634;2023-07-31T04:49:12;100587.38;;;17.91
78859;BMP280;68210;52.032;4.634;2023-07-31T04:51:13;100573.97;;;18.00
78859;BMP280;68210;52.032;4.634;2023-07-31T04:53:13;100579.09;;;17.98
78859;BMP280;68210;52.032;4.634;2023-07-31T04:55:14;100575.94;;;18.06
78859;BMP280;68210;52.032;4.634;2023-07-31T04:57:14;100567.34;;;17.97
78859;BMP280;68210;52.032;4.634;2023-07-31T04:59:14;100568.53;;;17.96
78859;BMP280;68210;52.032;4.634;2023-07-31T05:01:15;100567.72;;;17.99
78859;BMP280;68210;52.032;4.634;2023-07-31T05:03:15;100573.25;;;17.96
78859;BMP280;68210;52.032;4.634;2023-07-31T05:05:16;100568.13;;;17.98
78859;BMP280;68210;52.032;4.634;2023-07-31T05:07:16;100563.78;;;18.00
78859;BMP280;68210;52.032;4.634;2023-07-31T05:09:17;100572.22;;;17.73
78859;BMP280;68210;52.032;4.634;2023-07-31T05:11:18;100559.63;;;17.79
78859;BMP280;68210;52.032;4.634;2023-07-31T05:13:18;100554.19;;;17.75
78859;BMP280;68210;52.032;4.634;2023-07-31T05:15:19;100554.84;;;17.90
78859;BMP280;68210;52.032;4.634;2023-07-31T05:17:19;100557.22;;;17.91
78859;BMP280;68210;52.032;4.634;2023-07-31T05:19:19;100553.22;;;17.99
78859;BMP280;68210;52.032;4.634;2023-07-31T05:21:20;100551.75;;;17.84
78859;BMP280;68210;52.032;4.634;2023-07-31T05:23:20;100551.88;;;17.70
78859;BMP280;68210;52.032;4.634;2023-07-31T05:25:20;100546.00;;;17.72
78859;BMP280;68210;52.032;4.634;2023-07-31T05:27:21;100550.72;;;17.71
78859;BMP280;68210;52.032;4.634;2023-07-31T05:29:21;100548.69;;;17.79
78859;BMP280;68210;52.032;4.634;2023-07-31T05:31:21;100540.88;;;17.77
78859;BMP280;68210;52.032;4.634;2023-07-31T05:33:22;100525.94;;;17.82
78859;BMP280;68210;52.032;4.634;2023-07-31T05:35:23;100537.34;;;17.73
78859;BMP280;68210;52.032;4.634;2023-07-31T05:37:23;100546.34;;;17.77
78859;BMP280;68210;52.032;4.634;2023-07-31T05:39:24;100519.44;;;17.62
78859;BMP280;68210;52.032;4.634;2023-07-31T05:41:24;100522.94;;;17.63
78859;BMP280;68210;52.032;4.634;2023-07-31T05:43:25;100519.91;;;17.50
78859;BMP280;68210;52.032;4.634;2023-07-31T05:45:25;100526.59;;;17.46
78859;BMP280;68210;52.032;4.634;2023-07-31T05:47:25;100517.63;;;17.38
78859;BMP280;68210;52.032;4.634;2023-07-31T05:49:26;100522.38;;;17.34
78859;BMP280;68210;52.032;4.634;2023-07-31T05:51:27;100512.56;;;17.33
78859;BMP280;68210;52.032;4.634;2023-07-31T05:53:27;100513.38;;;17.34
78859;BMP280;68210;52.032;4.634;2023-07-31T05:55:28;100517.63;;;17.42
78859;BMP280;68210;52.032;4.634;2023-07-31T05:57:28;100500.38;;;17.45
78859;BMP280;68210;52.032;4.634;2023-07-31T05:59:29;100502.00;;;17.39
78859;BMP280;68210;52.032;4.634;2023-07-31T06:01:31;100491.78;;;17.43
78859;BMP280;68210;52.032;4.634;2023-07-31T06:03:32;100504.31;;;17.40
78859;BMP280;68210;52.032;4.634;2023-07-31T06:05:32;100507.13;;;17.30
78859;BMP280;68210;52.032;4.634;2023-07-31T06:07:32;100505.06;;;17.48
78859;BMP280;68210;52.032;4.634;2023-07-31T06:09:33;100503.94;;;17.42
78859;BMP280;68210;52.032;4.634;2023-07-31T06:11:33;100506.66;;;17.42
78859;BMP280;68210;52.032;4.634;2023-07-31T06:13:34;100502.00;;;17.39
78859;BMP280;68210;52.032;4.634;2023-07-31T06:15:34;100518.44;;;17.39
78859;BMP280;68210;52.032;4.634;2023-07-31T06:17:34;100488.25;;;17.42
78859;BMP280;68210;52.032;4.634;2023-07-31T06:19:35;100499.25;;;17.39
78859;BMP280;68210;52.032;4.634;2023-07-31T06:21:35;100501.94;;;17.46
78859;BMP280;68210;52.032;4.634;2023-07-31T06:23:37;100491.03;;;17.35
78859;BMP280;68210;52.032;4.634;2023-07-31T06:25:38;100488.66;;;17.41
78859;BMP280;68210;52.032;4.634;2023-07-31T06:27:38;100490.97;;;17.46
78859;BMP280;68210;52.032;4.634;2023-07-31T06:29:38;100483.50;;;17.50
78859;BMP280;68210;52.032;4.634;2023-07-31T06:31:40;100491.69;;;17.53
78859;BMP280;68210;52.032;4.634;2023-07-31T06:33:41;100492.47;;;17.54
78859;BMP280;68210;52.032;4.634;2023-07-31T06:35:41;100486.97;;;17.57
78859;BMP280;68210;52.032;4.634;2023-07-31T06:37:41;100494.03;;;17.58
78859;BMP280;68210;52.032;4.634;2023-07-31T06:39:44;100496.34;;;17.60
78859;BMP280;68210;52.032;4.634;2023-07-31T06:41:44;100488.19;;;17.53
78859;BMP280;68210;52.032;4.634;2023-07-31T06:43:45;100482.25;;;17.58
78859;BMP280;68210;52.032;4.634;2023-07-31T06:45:45;100483.06;;;17.55
78859;BMP280;68210;52.032;4.634;2023-07-31T06:47:46;100487.72;;;17.58
78859;BMP280;68210;52.032;4.634;2023-07-31T06:49:46;100465.84;;;17.54
78859;BMP280;68210;52.032;4.634;2023-07-31T06:51:47;100471.75;;;17.53
78859;BMP280;68210;52.032;4.634;2023-07-31T06:53:47;100476.50;;;17.45
78859;BMP280;68210;52.032;4.634;2023-07-31T06:55:48;100472.91;;;17.52
78859;BMP280;68210;52.032;4.634;2023-07-31T06:57:50;100472.47;;;17.57
78859;BMP280;68210;52.032;4.634;2023-07-31T06:59:50;100476.81;;;17.54
78859;BMP280;68210;52.032;4.634;2023-07-31T07:01:50;100476.03;;;17.54
78859;BMP280;68210;52.032;4.634;2023-07-31T07:03:51;100468.97;;;17.56
78859;BMP280;68210;52.032;4.634;2023-07-31T07:05:51;100471.28;;;17.58
78859;BMP280;68210;52.032;4.634;2023-07-31T07:07:51;100460.34;;;17.54
78859;BMP280;68210;52.032;4.634;2023-07-31T07:09:52;100473.69;;;17.52
78859;BMP280;68210;52.032;4.634;2023-07-31T07:11:52;100482.28;;;17.54
78859;BMP280;68210;52.032;4.634;2023-07-31T07:13:53;100466.13;;;17.66
78859;BMP280;68210;52.032;4.634;2023-07-31T07:15:53;100468.88;;;17.66
78859;BMP280;68210;52.032;4.634;2023-07-31T07:17:53;100471.19;;;17.71
78859;BMP280;68210;52.032;4.634;2023-07-31T07:19:54;100473.53;;;17.73
78859;BMP280;68210;52.032;4.634;2023-07-31T07:21:57;100477.41;;;17.75
78859;BMP280;68210;52.032;4.634;2023-07-31T07:23:59;100466.88;;;17.74
78859;BMP280;68210;52.032;4.634;2023-07-31T07:26:00;100469.56;;;17.77
78859;BMP280;68210;52.032;4.634;2023-07-31T07:28:00;100464.06;;;17.81
78859;BMP280;68210;52.032;4.634;2023-07-31T07:30:01;100470.31;;;17.81
78859;BMP280;68210;52.032;4.634;2023-07-31T07:32:01;100474.59;;;17.86
78859;BMP280;68210;52.032;4.634;2023-07-31T07:34:02;100468.31;;;17.85
78859;BMP280;68210;52.032;4.634;2023-07-31T07:36:02;100467.94;;;17.83
78859;BMP280;68210;52.032;4.634;2023-07-31T07:38:03;100469.44;;;17.91
78859;BMP280;68210;52.032;4.634;2023-07-31T07:40:04;100469.50;;;17.84
78859;BMP280;68210;52.032;4.634;2023-07-31T07:42:05;100480.09;;;17.82
78859;BMP280;68210;52.032;4.634;2023-07-31T07:44:08;100469.78;;;17.96
78859;BMP280;68210;52.032;4.634;2023-07-31T07:46:08;100470.16;;;17.98
78859;BMP280;68210;52.032;4.634;2023-07-31T07:48:08;100461.88;;;18.02
78859;BMP280;68210;52.032;4.634;2023-07-31T07:50:09;100479.97;;;17.96
78859;BMP280;68210;52.032;4.634;2023-07-31T07:52:09;100476.00;;;18.00
78859;BMP280;68210;52.032;4.634;2023-07-31T07:54:10;100464.59;;;18.09
78859;BMP280;68210;52.032;4.634;2023-07-31T07:56:10;100461.47;;;18.07
78859;BMP280;68210;52.032;4.634;2023-07-31T07:58:10;100468.47;;;18.11
78859;BMP280;68210;52.032;4.634;2023-07-31T08:00:13;100469.22;;;18.15
78859;BMP280;68210;52.032;4.634;2023-07-31T08:02:13;100451.19;;;18.18
78859;BMP280;68210;52.032;4.634;2023-07-31T08:04:13;100448.75;;;18.23
78859;BMP280;68210;52.032;4.634;2023-07-31T08:06:14;100451.47;;;18.26
78859;BMP280;68210;52.032;4.634;2023-07-31T08:08:15;100445.53;;;18.31
78859;BMP280;68210;52.032;4.634;2023-07-31T08:10:18;100447.06;;;18.32
78859;BMP280;68210;52.032;4.634;2023-07-31T08:12:19;100452.56;;;18.32
78859;BMP280;68210;52.032;4.634;2023-07-31T08:14:19;100436.09;;;18.32
78859;BMP280;68210;52.032;4.634;2023-07-31T08:16:19;100439.31;;;18.27
78859;BMP280;68210;52.032;4.634;2023-07-31T08:18:20;100446.41;;;18.25
78859;BMP280;68210;52.032;4.634;2023-07-31T08:20:20;100429.06;;;18.31
78859;BMP280;68210;52.032;4.634;2023-07-31T08:22:21;100450.13;;;18.41
78859;BMP280;68210;52.032;4.634;2023-07-31T08:24:22;100443.22;;;18.26
78859;BMP280;68210;52.032;4.634;2023-07-31T08:26:22;100448.38;;;18.21
78859;BMP280;68210;52.032;4.634;2023-07-31T08:28:23;100447.06;;;18.32
78859;BMP280;68210;52.032;4.634;2023-07-31T08:30:23;100440.81;;;18.32
78859;BMP280;68210;52.032;4.634;2023-07-31T08:32:24;100440.09;;;18.25
78859;BMP280;68210;52.032;4.634;2023-07-31T08:34:24;100439.66;;;18.29
78859;BMP280;68210;52.032;4.634;2023-07-31T08:36:25;100441.59;;;18.32
78859;BMP280;68210;52.032;4.634;2023-07-31T08:38:26;100432.13;;;18.37
78859;BMP280;68210;52.032;4.634;2023-07-31T08:40:26;100450.19;;;18.34
78859;BMP280;68210;52.032;4.634;2023-07-31T08:42:28;100432.53;;;18.35
78859;BMP280;68210;52.032;4.634;2023-07-31T08:44:30;100437.13;;;18.45
78859;BMP280;68210;52.032;4.634;2023-07-31T08:46:32;100430.38;;;18.53
78859;BMP280;68210;52.032;4.634;2023-07-31T08:48:34;100434.66;;;18.54
78859;BMP280;68210;52.032;4.634;2023-07-31T08:50:36;100431.97;;;18.51
78859;BMP280;68210;52.032;4.634;2023-07-31T08:52:37;100422.13;;;18.53
78859;BMP280;68210;52.032;4.634;2023-07-31T08:54:37;100436.69;;;18.50
78859;BMP280;68210;52.032;4.634;2023-07-31T08:56:39;100442.19;;;18.50
78859;BMP280;68210;52.032;4.634;2023-07-31T08:58:40;100438.59;;;18.53
78859;BMP280;68210;52.032;4.634;2023-07-31T09:00:41;100449.19;;;18.55
78859;BMP280;68210;52.032;4.634;2023-07-31T09:02:46;100438.16;;;18.58
78859;BMP280;68210;52.032;4.634;2023-07-31T09:04:48;100439.34;;;18.57
78859;BMP280;68210;52.032;4.634;2023-07-31T09:06:50;100436.56;;;18.60
78859;BMP280;68210;52.032;4.634;2023-07-31T09:08:56;100433.81;;;18.60
78859;BMP280;68210;52.032;4.634;2023-07-31T09:11:00;100433.38;;;18.62
78859;BMP280;68210;52.032;4.634;2023-07-31T09:13:02;100428.25;;;18.64
78859;BMP280;68210;52.032;4.634;2023-07-31T09:15:03;100424.00;;;18.59
78859;BMP280;68210;52.032;4.634;2023-07-31T09:17:04;100426.28;;;18.64
78859;BMP280;68210;52.032;4.634;2023-07-31T09:19:05;100433.38;;;18.62
78859;BMP280;68210;52.032;4.634;2023-07-31T09:21:05;100431.75;;;18.68
78859;BMP280;68210;52.032;4.634;2023-07-31T09:23:13;100428.59;;;18.69
78859;BMP280;68210;52.032;4.634;2023-07-31T09:25:16;100437.66;;;18.66
78859;BMP280;68210;52.032;4.634;2023-07-31T09:27:16;100423.91;;;18.66
78859;BMP280;68210;52.032;4.634;2023-07-31T09:29:19;100438.78;;;18.69
78859;BMP280;68210;52.032;4.634;2023-07-31T09:31:41;100426.66;;;18.66
78859;BMP280;68210;52.032;4.634;2023-07-31T09:33:54;100432.09;;;18.70
78859;BMP280;68210;52.032;4.634;2023-07-31T09:35:58;100425.78;;;18.73
78859;BMP280;68210;52.032;4.634;2023-07-31T09:38:00;100426.91;;;18.79
78859;BMP280;68210;52.032;4.634;2023-07-31T09:40:01;100429.22;;;18.80
78859;BMP280;68210;52.032;4.634;2023-07-31T09:42:01;100422.59;;;18.78
78859;BMP280;68210;52.032;4.634;2023-07-31T09:44:01;100417.47;;;18.80
78859;BMP280;68210;52.032;4.634;2023-07-31T09:46:02;100413.50;;;18.81
78859;BMP280;68210;52.032;4.634;2023-07-31T09:48:03;100430.31;;;18.86
78859;BMP280;68210;52.032;4.634;2023-07-31T09:50:07;100408.31;;;18.89
78859;BMP280;68210;52.032;4.634;2023-07-31T09:52:11;100410.88;;;19.03
78859;BMP280;68210;52.032;4.634;2023-07-31T09:54:15;100412.47;;;19.01
78859;BMP280;68210;52.032;4.634;2023-07-31T09:56:17;100408.19;;;19.00
78859;BMP280;68210;52.032;4.634;2023-07-31T09:58:21;100419.94;;;19.00
78859;BMP280;68210;52.032;4.634;2023-07-31T10:00:21;100419.59;;;18.98
78859;BMP280;68210;52.032;4.634;2023-07-31T10:02:26;100423.47;;;19.01
78859;BMP280;68210;52.032;4.634;2023-07-31T10:04:27;100414.03;;;19.02
78859;BMP280;68210;52.032;4.634;2023-07-31T10:06:28;100419.19;;;19.00
78859;BMP280;68210;52.032;4.634;2023-07-31T10:08:32;100410.88;;;19.03
78859;BMP280;68210;52.032;4.634;2023-07-31T10:10:36;100410.34;;;19.12
78859;BMP280;68210;52.032;4.634;2023-07-31T10:12:37;100414.44;;;19.26
78859;BMP280;68210;52.032;4.634;2023-07-31T10:14:38;100404.84;;;19.38
78859;BMP280;68210;52.032;4.634;2023-07-31T10:16:41;100419.72;;;19.40
78859;BMP280;68210;52.032;4.634;2023-07-31T10:18:43;100407.91;;;19.43
78859;BMP280;68210;52.032;4.634;2023-07-31T10:20:45;100413.25;;;19.50
78859;BMP280;68210;52.032;4.634;2023-07-31T10:22:47;100407.47;;;19.45
78859;BMP280;68210;52.032;4.634;2023-07-31T10:24:48;100412.56;;;19.46
78859;BMP280;68210;52.032;4.634;2023-07-31T10:26:52;100426.16;;;19.53
78859;BMP280;68210;52.032;4.634;2023-07-31T10:28:53;100415.25;;;19.49
78859;BMP280;68210;52.032;4.634;2023-07-31T10:30:54;100417.28;;;19.46
78859;BMP280;68210;52.032;4.634;2023-07-31T10:32:55;100410.56;;;19.47
78859;BMP280;68210;52.032;4.634;2023-07-31T10:34:56;100415.78;;;19.41
78859;BMP280;68210;52.032;4.634;2023-07-31T10:37:24;100417.91;;;19.53
78859;BMP280;68210;52.032;4.634;2023-07-31T10:39:37;100423.47;;;19.49
78859;BMP280;68210;52.032;4.634;2023-07-31T10:41:40;100414.16;;;19.44
78859;BMP280;68210;52.032;4.634;2023-07-31T10:43:40;100413.25;;;19.50
78859;BMP280;68210;52.032;4.634;2023-07-31T10:45:43;100403.78;;;19.54
78859;BMP280;68210;52.032;4.634;2023-07-31T10:47:45;100405.69;;;19.57
78859;BMP280;68210;52.032;4.634;2023-07-31T10:49:47;100406.88;;;19.56
78859;BMP280;68210;52.032;4.634;2023-07-31T10:51:48;100413.38;;;19.66
78859;BMP280;68210;52.032;4.634;2023-07-31T10:53:48;100393.84;;;19.60
78859;BMP280;68210;52.032;4.634;2023-07-31T10:55:49;100411.00;;;19.68
78859;BMP280;68210;52.032;4.634;2023-07-31T10:57:51;100408.25;;;19.68
78859;BMP280;68210;52.032;4.634;2023-07-31T11:00:45;100406.19;;;19.75
78859;BMP280;68210;52.032;4.634;2023-07-31T11:02:38;100405.91;;;19.66
78859;BMP280;68210;52.032;4.634;2023-07-31T11:04:41;100390.25;;;19.63
78859;BMP280;68210;52.032;4.634;2023-07-31T11:06:55;100406.53;;;19.77
78859;BMP280;68210;52.032;4.634;2023-07-31T11:08:55;100398.16;;;19.84
78859;BMP280;68210;52.032;4.634;2023-07-31T11:13:04;100378.19;;;19.80
78859;BMP280;68210;52.032;4.634;2023-07-31T11:15:05;100381.78;;;19.77
78859;BMP280;68210;52.032;4.634;2023-07-31T11:17:07;100376.50;;;19.86
78859;BMP280;68210;52.032;4.634;2023-07-31T11:19:08;100380.19;;;19.99
78859;BMP280;68210;52.032;4.634;2023-07-31T11:21:13;100384.91;;;19.98
78859;BMP280;68210;52.032;4.634;2023-07-31T11:23:16;100381.25;;;20.05
78859;BMP280;68210;52.032;4.634;2023-07-31T11:25:17;100384.22;;;20.13
78859;BMP280;68210;52.032;4.634;2023-07-31T11:27:18;100381.63;;;20.26
78859;BMP280;68210;52.032;4.634;2023-07-31T11:29:19;100386.56;;;20.15
78859;BMP280;68210;52.032;4.634;2023-07-31T11:31:20;100362.78;;;20.05
78859;BMP280;68210;52.032;4.634;2023-07-31T11:33:20;100372.16;;;20.08
78859;BMP280;68210;52.032;4.634;2023-07-31T11:35:21;100363.75;;;20.14